sensor_id;sensor_type;location;lat;lon;timestamp;temperature;humidity
26081;DHT22;13991;51.174;4.438;2023-05-07T00:01:43;17.30;99.90
26081;DHT22;13991;51.174;4.438;2023-05-07T00:04:08;17.30;99.90
26081;DHT22;13991;51.174;4.438;2023-05-07T00:06:34;17.20;99.90
26081;DHT22;13991;51.174;4.438;2023-05-07T00:09:00;17.20;99.90
26081;DHT22;13991;51.174;4.438;2023-05-07T00:11:27;17.10;99.90
26081;DHT22;13991;51.174;4.438;2023-05-07T00:13:53;17.00;99.90
26081;DHT22;13991;51.174;4.438;2023-05-07T00:16:18;17.10;99.90
26081;DHT22;13991;51.174;4.438;2023-05-07T00:18:44;17.00;99.90
26081;DHT22;13991;51.174;4.438;2023-05-07T00:21:10;16.90;99.90
26081;DHT22;13991;51.174;4.438;2023-05-07T00:23:36;17.00;99.90
26081;DHT22;13991;51.174;4.438;2023-05-07T00:26:02;17.00;99.90
26081;DHT22;13991;51.174;4.438;2023-05-07T00:28:28;17.00;99.90
26081;DHT22;13991;51.174;4.438;2023-05-07T00:30:53;17.00;99.90
26081;DHT22;13991;51.174;4.438;2023-05-07T00:33:19;16.90;99.90
26081;DHT22;13991;51.174;4.438;2023-05-07T00:35:46;16.90;99.90
26081;DHT22;13991;51.174;4.438;2023-05-07T00:38:12;17.00;99.90
26081;DHT22;13991;51.174;4.438;2023-05-07T00:40:37;17.00;99.90
26081;DHT22;13991;51.174;4.438;2023-05-07T00:43:03;17.00;99.90
26081;DHT22;13991;51.174;4.438;2023-05-07T00:45:29;17.10;99.90
26081;DHT22;13991;51.174;4.438;2023-05-07T00:48:00;17.10;99.90
26081;DHT22;13991;51.174;4.438;2023-05-07T00:50:26;17.00;99.90
26081;DHT22;13991;51.174;4.438;2023-05-07T00:52:53;17.10;99.90
26081;DHT22;13991;51.174;4.438;2023-05-07T00:55:18;17.00;99.90
26081;DHT22;13991;51.174;4.438;2023-05-07T00:57:45;17.20;99.90
26081;DHT22;13991;51.174;4.438;2023-05-07T01:00:12;17.20;99.90
26081;DHT22;13991;51.174;4.438;2023-05-07T01:02:41;17.30;99.90
26081;DHT22;13991;51.174;4.438;2023-05-07T01:05:09;17.20;99.90
26081;DHT22;13991;51.174;4.438;2023-05-07T01:07:37;17.20;99.90
26081;DHT22;13991;51.174;4.438;2023-05-07T01:10:05;17.00;99.90
26081;DHT22;13991;51.174;4.438;2023-05-07T01:12:32;16.90;99.90
26081;DHT22;13991;51.174;4.438;2023-05-07T01:14:58;17.00;99.90
26081;DHT22;13991;51.174;4.438;2023-05-07T01:17:24;16.90;99.90
26081;DHT22;13991;51.174;4.438;2023-05-07T01:19:50;16.90;99.90
26081;DHT22;13991;51.174;4.438;2023-05-07T01:22:17;16.80;99.90
26081;DHT22;13991;51.174;4.438;2023-05-07T01:24:46;16.80;99.90
26081;DHT22;13991;51.174;4.438;2023-05-07T01:27:12;16.80;99.90
26081;DHT22;13991;51.174;4.438;2023-05-07T01:29:38;16.70;99.90
26081;DHT22;13991;51.174;4.438;2023-05-07T01:32:05;16.70;99.90
26081;DHT22;13991;51.174;4.438;2023-05-07T01:34:32;16.70;99.90
26081;DHT22;13991;51.174;4.438;2023-05-07T01:37:00;16.70;99.90
26081;DHT22;13991;51.174;4.438;2023-05-07T01:39:27;16.70;99.90
26081;DHT22;13991;51.174;4.438;2023-05-07T01:41:58;16.60;99.90
26081;DHT22;13991;51.174;4.438;2023-05-07T01:44:24;16.60;99.90
26081;DHT22;13991;51.174;4.438;2023-05-07T01:46:51;16.60;99.90
26081;DHT22;13991;51.174;4.438;2023-05-07T01:49:17;16.60;99.90
26081;DHT22;13991;51.174;4.438;2023-05-07T01:51:43;16.60;99.90
26081;DHT22;13991;51.174;4.438;2023-05-07T01:54:09;16.60;99.90
26081;DHT22;13991;51.174;4.438;2023-05-07T01:56:35;16.60;99.90
26081;DHT22;13991;51.174;4.438;2023-05-07T01:59:01;16.60;99.90
26081;DHT22;13991;51.174;4.438;2023-05-07T02:01:27;16.60;99.90
26081;DHT22;13991;51.174;4.438;2023-05-07T02:03:53;16.50;99.90
26081;DHT22;13991;51.174;4.438;2023-05-07T02:06:19;16.40;99.90
26081;DHT22;13991;51.174;4.438;2023-05-07T02:08:45;16.40;99.90
26081;DHT22;13991;51.174;4.438;2023-05-07T02:11:11;16.40;99.90
26081;DHT22;13991;51.174;4.438;2023-05-07T02:13:37;16.40;99.90
26081;DHT22;13991;51.174;4.438;2023-05-07T02:16:03;16.40;99.90
26081;DHT22;13991;51.174;4.438;2023-05-07T02:18:29;16.40;99.90
26081;DHT22;13991;51.174;4.438;2023-05-07T02:20:54;16.50;99.90
26081;DHT22;13991;51.174;4.438;2023-05-07T02:23:20;16.50;99.90
26081;DHT22;13991;51.174;4.438;2023-05-07T02:25:46;16.40;99.90
26081;DHT22;13991;51.174;4.438;2023-05-07T02:28:12;16.50;99.90
26081;DHT22;13991;51.174;4.438;2023-05-07T02:30:38;16.50;99.90
26081;DHT22;13991;51.174;4.438;2023-05-07T02:33:04;16.50;99.90
26081;DHT22;13991;51.174;4.438;2023-05-07T02:35:30;16.50;99.90
26081;DHT22;13991;51.174;4.438;2023-05-07T02:37:55;16.50;99.90
26081;DHT22;13991;51.174;4.438;2023-05-07T02:40:21;16.60;99.90
26081;DHT22;13991;51.174;4.438;2023-05-07T02:42:47;16.50;99.90
26081;DHT22;13991;51.174;4.438;2023-05-07T02:45:12;16.40;99.90
26081;DHT22;13991;51.174;4.438;2023-05-07T02:47:38;16.40;99.90
26081;DHT22;13991;51.174;4.438;2023-05-07T02:50:04;16.50;99.90
26081;DHT22;13991;51.174;4.438;2023-05-07T02:52:30;16.50;99.90
26081;DHT22;13991;51.174;4.438;2023-05-07T02:54:55;16.50;99.90
26081;DHT22;13991;51.174;4.438;2023-05-07T02:57:21;16.60;99.90
26081;DHT22;13991;51.174;4.438;2023-05-07T02:59:47;16.50;99.90
26081;DHT22;13991;51.174;4.438;2023-05-07T03:02:12;16.60;99.90
26081;DHT22;13991;51.174;4.438;2023-05-07T03:04:39;16.50;99.90
26081;DHT22;13991;51.174;4.438;2023-05-07T03:07:04;16.40;99.90
26081;DHT22;13991;51.174;4.438;2023-05-07T03:09:30;16.40;99.90
26081;DHT22;13991;51.174;4.438;2023-05-07T03:11:56;16.40;99.90
26081;DHT22;13991;51.174;4.438;2023-05-07T03:14:22;16.50;99.90
26081;DHT22;13991;51.174;4.438;2023-05-07T03:16:49;16.50;99.90
26081;DHT22;13991;51.174;4.438;2023-05-07T03:19:14;16.50;99.90
26081;DHT22;13991;51.174;4.438;2023-05-07T03:21:40;16.50;99.90
26081;DHT22;13991;51.174;4.438;2023-05-07T03:24:06;16.50;99.90
26081;DHT22;13991;51.174;4.438;2023-05-07T03:26:32;16.60;99.90
26081;DHT22;13991;51.174;4.438;2023-05-07T03:28:57;16.60;99.90
26081;DHT22;13991;51.174;4.438;2023-05-07T03:31:23;16.60;99.90
26081;DHT22;13991;51.174;4.438;2023-05-07T03:33:53;16.60;99.90
26081;DHT22;13991;51.174;4.438;2023-05-07T03:36:19;16.50;99.90
26081;DHT22;13991;51.174;4.438;2023-05-07T03:38:46;16.50;99.90
26081;DHT22;13991;51.174;4.438;2023-05-07T03:41:12;16.50;99.90
26081;DHT22;13991;51.174;4.438;2023-05-07T03:43:37;16.50;99.90
26081;DHT22;13991;51.174;4.438;2023-05-07T03:46:03;16.60;99.90
26081;DHT22;13991;51.174;4.438;2023-05-07T03:48:29;16.60;99.90
26081;DHT22;13991;51.174;4.438;2023-05-07T03:50:57;16.60;99.90
26081;DHT22;13991;51.174;4.438;2023-05-07T03:53:22;16.60;99.90
26081;DHT22;13991;51.174;4.438;2023-05-07T03:55:48;16.50;99.90
26081;DHT22;13991;51.174;4.438;2023-05-07T03:58:14;16.50;99.90
26081;DHT22;13991;51.174;4.438;2023-05-07T04:00:41;16.60;99.90
26081;DHT22;13991;51.174;4.438;2023-05-07T04:03:06;16.50;99.90
26081;DHT22;13991;51.174;4.438;2023-05-07T04:05:32;16.50;99.90
26081;DHT22;13991;51.174;4.438;2023-05-07T04:07:59;16.60;99.90
26081;DHT22;13991;51.174;4.438;2023-05-07T04:10:25;16.60;99.90
26081;DHT22;13991;51.174;4.438;2023-05-07T04:12:51;16.50;99.90
26081;DHT22;13991;51.174;4.438;2023-05-07T04:15:17;16.50;99.90
26081;DHT22;13991;51.174;4.438;2023-05-07T04:17:42;16.50;99.90
26081;DHT22;13991;51.174;4.438;2023-05-07T04:20:15;16.50;99.90
26081;DHT22;13991;51.174;4.438;2023-05-07T04:22:41;16.40;99.90
26081;DHT22;13991;51.174;4.438;2023-05-07T04:25:08;16.50;99.90
26081;DHT22;13991;51.174;4.438;2023-05-07T04:27:34;16.50;99.90
26081;DHT22;13991;51.174;4.438;2023-05-07T04:30:01;16.50;99.90
26081;DHT22;13991;51.174;4.438;2023-05-07T04:32:28;16.50;99.90
26081;DHT22;13991;51.174;4.438;2023-05-07T04:34:55;16.50;99.90
26081;DHT22;13991;51.174;4.438;2023-05-07T04:37:21;16.50;99.90
26081;DHT22;13991;51.174;4.438;2023-05-07T04:39:47;16.50;99.90
26081;DHT22;13991;51.174;4.438;2023-05-07T04:42:16;16.60;99.90
26081;DHT22;13991;51.174;4.438;2023-05-07T04:44:44;16.70;99.90
26081;DHT22;13991;51.174;4.438;2023-05-07T04:47:10;16.60;99.90
26081;DHT22;13991;51.174;4.438;2023-05-07T04:49:37;16.60;99.90
26081;DHT22;13991;51.174;4.438;2023-05-07T04:52:04;16.80;99.90
26081;DHT22;13991;51.174;4.438;2023-05-07T04:54:30;16.90;99.90
26081;DHT22;13991;51.174;4.438;2023-05-07T04:56:55;16.90;99.90
26081;DHT22;13991;51.174;4.438;2023-05-07T04:59:21;16.90;99.90
26081;DHT22;13991;51.174;4.438;2023-05-07T05:01:47;17.00;99.90
26081;DHT22;13991;51.174;4.438;2023-05-07T05:04:13;16.90;99.90
26081;DHT22;13991;51.174;4.438;2023-05-07T05:06:39;16.90;99.90
26081;DHT22;13991;51.174;4.438;2023-05-07T05:09:04;17.00;99.90
26081;DHT22;13991;51.174;4.438;2023-05-07T05:11:31;17.00;99.90
26081;DHT22;13991;51.174;4.438;2023-05-07T05:13:56;17.00;99.90
26081;DHT22;13991;51.174;4.438;2023-05-07T05:16:22;17.10;99.90
26081;DHT22;13991;51.174;4.438;2023-05-07T05:18:48;17.10;99.90
26081;DHT22;13991;51.174;4.438;2023-05-07T05:21:14;17.00;99.90
26081;DHT22;13991;51.174;4.438;2023-05-07T05:23:39;17.00;99.90
26081;DHT22;13991;51.174;4.438;2023-05-07T05:26:05;17.00;99.90
26081;DHT22;13991;51.174;4.438;2023-05-07T05:28:31;17.00;99.90
26081;DHT22;13991;51.174;4.438;2023-05-07T05:30:56;17.00;99.90
26081;DHT22;13991;51.174;4.438;2023-05-07T05:33:22;17.00;99.90
26081;DHT22;13991;51.174;4.438;2023-05-07T05:35:48;17.10;99.90
26081;DHT22;13991;51.174;4.438;2023-05-07T05:38:14;17.00;99.90
26081;DHT22;13991;51.174;4.438;2023-05-07T05:40:40;17.00;99.90
26081;DHT22;13991;51.174;4.438;2023-05-07T05:43:06;17.10;99.90
26081;DHT22;13991;51.174;4.438;2023-05-07T05:45:31;17.10;99.90
26081;DHT22;13991;51.174;4.438;2023-05-07T05:47:57;17.20;99.90
26081;DHT22;13991;51.174;4.438;2023-05-07T05:50:23;17.20;99.90
26081;DHT22;13991;51.174;4.438;2023-05-07T05:52:49;17.20;99.90
26081;DHT22;13991;51.174;4.438;2023-05-07T05:55:14;17.10;99.90
26081;DHT22;13991;51.174;4.438;2023-05-07T05:57:40;17.10;99.90
26081;DHT22;13991;51.174;4.438;2023-05-07T06:00:07;17.10;99.90
26081;DHT22;13991;51.174;4.438;2023-05-07T06:02:33;17.30;99.90
26081;DHT22;13991;51.174;4.438;2023-05-07T06:04:59;17.40;99.90
26081;DHT22;13991;51.174;4.438;2023-05-07T06:07:25;17.40;99.90
26081;DHT22;13991;51.174;4.438;2023-05-07T06:09:50;17.30;99.90
26081;DHT22;13991;51.174;4.438;2023-05-07T06:12:16;17.40;99.90
26081;DHT22;13991;51.174;4.438;2023-05-07T06:14:45;17.40;99.90
26081;DHT22;13991;51.174;4.438;2023-05-07T06:17:10;17.60;99.90
26081;DHT22;13991;51.174;4.438;2023-05-07T06:19:36;17.50;99.90
26081;DHT22;13991;51.174;4.438;2023-05-07T06:22:02;17.40;99.90
26081;DHT22;13991;51.174;4.438;2023-05-07T06:24:28;17.50;99.90
26081;DHT22;13991;51.174;4.438;2023-05-07T06:26:54;17.60;99.90
26081;DHT22;13991;51.174;4.438;2023-05-07T06:29:20;17.60;99.90
26081;DHT22;13991;51.174;4.438;2023-05-07T06:31:45;17.70;99.90
26081;DHT22;13991;51.174;4.438;2023-05-07T06:34:11;17.80;99.90
26081;DHT22;13991;51.174;4.438;2023-05-07T06:36:40;17.70;99.90
26081;DHT22;13991;51.174;4.438;2023-05-07T06:39:06;17.90;99.90
26081;DHT22;13991;51.174;4.438;2023-05-07T06:41:32;18.00;99.90
26081;DHT22;13991;51.174;4.438;2023-05-07T06:43:57;18.10;99.90
26081;DHT22;13991;51.174;4.438;2023-05-07T06:46:23;18.10;99.90
26081;DHT22;13991;51.174;4.438;2023-05-07T06:48:49;17.90;99.90
26081;DHT22;13991;51.174;4.438;2023-05-07T06:51:14;17.80;99.90
26081;DHT22;13991;51.174;4.438;2023-05-07T06:53:40;18.00;99.90
26081;DHT22;13991;51.174;4.438;2023-05-07T06:56:06;18.00;99.90
26081;DHT22;13991;51.174;4.438;2023-05-07T06:58:32;18.10;99.90
26081;DHT22;13991;51.174;4.438;2023-05-07T07:00:58;18.20;99.90
26081;DHT22;13991;51.174;4.438;2023-05-07T07:03:23;18.20;99.90
26081;DHT22;13991;51.174;4.438;2023-05-07T07:05:53;18.40;99.90
26081;DHT22;13991;51.174;4.438;2023-05-07T07:08:19;18.40;99.90
26081;DHT22;13991;51.174;4.438;2023-05-07T07:10:46;18.40;99.90
26081;DHT22;13991;51.174;4.438;2023-05-07T07:13:12;18.50;99.90
26081;DHT22;13991;51.174;4.438;2023-05-07T07:15:38;18.50;99.90
26081;DHT22;13991;51.174;4.438;2023-05-07T07:18:04;18.50;99.90
26081;DHT22;13991;51.174;4.438;2023-05-07T07:20:30;18.60;99.90
26081;DHT22;13991;51.174;4.438;2023-05-07T07:22:55;18.60;99.90
26081;DHT22;13991;51.174;4.438;2023-05-07T07:25:21;18.60;99.90
26081;DHT22;13991;51.174;4.438;2023-05-07T07:27:47;18.70;99.90
26081;DHT22;13991;51.174;4.438;2023-05-07T07:30:12;18.80;99.90
26081;DHT22;13991;51.174;4.438;2023-05-07T07:32:38;18.90;99.90
26081;DHT22;13991;51.174;4.438;2023-05-07T07:35:04;18.80;99.90
26081;DHT22;13991;51.174;4.438;2023-05-07T07:37:30;18.90;99.90
26081;DHT22;13991;51.174;4.438;2023-05-07T07:39:56;18.70;99.90
26081;DHT22;13991;51.174;4.438;2023-05-07T07:42:22;18.60;99.90
26081;DHT22;13991;51.174;4.438;2023-05-07T07:44:48;18.80;99.90
26081;DHT22;13991;51.174;4.438;2023-05-07T07:47:13;18.90;99.90
26081;DHT22;13991;51.174;4.438;2023-05-07T07:49:39;18.80;99.90
26081;DHT22;13991;51.174;4.438;2023-05-07T07:52:05;18.60;99.90
26081;DHT22;13991;51.174;4.438;2023-05-07T07:54:31;18.70;99.90
26081;DHT22;13991;51.174;4.438;2023-05-07T07:56:56;19.00;99.90
26081;DHT22;13991;51.174;4.438;2023-05-07T07:59:22;19.20;99.90
26081;DHT22;13991;51.174;4.438;2023-05-07T08:01:48;19.30;99.90
26081;DHT22;13991;51.174;4.438;2023-05-07T08:04:29;19.40;99.90
26081;DHT22;13991;51.174;4.438;2023-05-07T08:06:58;19.60;99.90
26081;DHT22;13991;51.174;4.438;2023-05-07T08:09:24;19.40;99.90
26081;DHT22;13991;51.174;4.438;2023-05-07T08:11:49;19.50;99.90
26081;DHT22;13991;51.174;4.438;2023-05-07T08:14:16;19.40;99.90
26081;DHT22;13991;51.174;4.438;2023-05-07T08:16:42;19.40;99.90
26081;DHT22;13991;51.174;4.438;2023-05-07T08:19:07;19.30;99.90
26081;DHT22;13991;51.174;4.438;2023-05-07T08:21:33;19.50;99.90
26081;DHT22;13991;51.174;4.438;2023-05-07T08:23:59;19.50;99.90
26081;DHT22;13991;51.174;4.438;2023-05-07T08:26:25;19.70;99.90
26081;DHT22;13991;51.174;4.438;2023-05-07T08:28:51;19.40;99.90
26081;DHT22;13991;51.174;4.438;2023-05-07T08:31:16;19.60;99.90
26081;DHT22;13991;51.174;4.438;2023-05-07T08:33:42;19.70;99.90
26081;DHT22;13991;51.174;4.438;2023-05-07T08:36:08;19.70;99.90
26081;DHT22;13991;51.174;4.438;2023-05-07T08:38:33;19.50;99.90
26081;DHT22;13991;51.174;4.438;2023-05-07T08:40:59;19.40;99.90
26081;DHT22;13991;51.174;4.438;2023-05-07T08:43:27;19.40;99.90
26081;DHT22;13991;51.174;4.438;2023-05-07T08:46:00;19.60;99.90
26081;DHT22;13991;51.174;4.438;2023-05-07T08:48:29;19.50;99.90
26081;DHT22;13991;51.174;4.438;2023-05-07T08:50:58;19.40;99.90
26081;DHT22;13991;51.174;4.438;2023-05-07T08:53:24;19.50;99.90
26081;DHT22;13991;51.174;4.438;2023-05-07T08:55:50;19.50;99.90
26081;DHT22;13991;51.174;4.438;2023-05-07T08:58:16;19.60;99.90
26081;DHT22;13991;51.174;4.438;2023-05-07T09:00:42;19.60;99.90
26081;DHT22;13991;51.174;4.438;2023-05-07T09:03:08;19.70;99.90
26081;DHT22;13991;51.174;4.438;2023-05-07T09:05:38;19.60;99.90
26081;DHT22;13991;51.174;4.438;2023-05-07T09:08:04;19.60;99.90
26081;DHT22;13991;51.174;4.438;2023-05-07T09:10:33;19.50;99.90
26081;DHT22;13991;51.174;4.438;2023-05-07T09:12:59;19.60;99.90
26081;DHT22;13991;51.174;4.438;2023-05-07T09:15:25;19.70;99.90
26081;DHT22;13991;51.174;4.438;2023-05-07T09:17:51;19.50;99.90
26081;DHT22;13991;51.174;4.438;2023-05-07T09:20:18;19.60;99.90
26081;DHT22;13991;51.174;4.438;2023-05-07T09:22:43;19.70;99.90
26081;DHT22;13991;51.174;4.438;2023-05-07T09:25:09;19.80;99.90
26081;DHT22;13991;51.174;4.438;2023-05-07T09:27:35;19.80;99.90
26081;DHT22;13991;51.174;4.438;2023-05-07T09:30:08;19.70;99.90
26081;DHT22;13991;51.174;4.438;2023-05-07T09:32:37;19.70;99.90
26081;DHT22;13991;51.174;4.438;2023-05-07T09:35:06;19.60;99.90
26081;DHT22;13991;51.174;4.438;2023-05-07T09:37:40;19.80;99.90
26081;DHT22;13991;51.174;4.438;2023-05-07T09:40:07;19.80;99.90
26081;DHT22;13991;51.174;4.438;2023-05-07T09:42:34;19.90;99.90
26081;DHT22;13991;51.174;4.438;2023-05-07T09:45:00;19.70;99.90
26081;DHT22;13991;51.174;4.438;2023-05-07T09:47:28;19.70;99.90
26081;DHT22;13991;51.174;4.438;2023-05-07T09:49:59;19.80;99.90
26081;DHT22;13991;51.174;4.438;2023-05-07T09:52:26;19.80;99.90
26081;DHT22;13991;51.174;4.438;2023-05-07T09:54:59;19.70;99.90
26081;DHT22;13991;51.174;4.438;2023-05-07T09:57:26;19.70;99.90
26081;DHT22;13991;51.174;4.438;2023-05-07T09:59:54;19.70;99.90
26081;DHT22;13991;51.174;4.438;2023-05-07T10:02:21;19.70;99.90
26081;DHT22;13991;51.174;4.438;2023-05-07T10:04:49;19.70;99.90
26081;DHT22;13991;51.174;4.438;2023-05-07T10:07:16;19.70;99.90
26081;DHT22;13991;51.174;4.438;2023-05-07T10:09:42;19.70;99.90
26081;DHT22;13991;51.174;4.438;2023-05-07T10:12:09;19.70;99.90
26081;DHT22;13991;51.174;4.438;2023-05-07T10:14:35;19.50;99.90
26081;DHT22;13991;51.174;4.438;2023-05-07T10:17:02;19.40;99.90
26081;DHT22;13991;51.174;4.438;2023-05-07T10:19:29;19.30;99.90
26081;DHT22;13991;51.174;4.438;2023-05-07T10:21:56;19.10;99.90
26081;DHT22;13991;51.174;4.438;2023-05-07T10:24:35;19.10;99.90
26081;DHT22;13991;51.174;4.438;2023-05-07T10:27:10;19.20;99.90
26081;DHT22;13991;51.174;4.438;2023-05-07T10:32:39;19.30;99.90
26081;DHT22;13991;51.174;4.438;2023-05-07T10:35:10;19.40;99.90
26081;DHT22;13991;51.174;4.438;2023-05-07T10:37:36;19.30;99.90
26081;DHT22;13991;51.174;4.438;2023-05-07T10:40:02;19.30;99.90
26081;DHT22;13991;51.174;4.438;2023-05-07T10:42:28;19.30;99.90
26081;DHT22;13991;51.174;4.438;2023-05-07T10:44:54;19.30;99.90
26081;DHT22;13991;51.174;4.438;2023-05-07T10:47:20;19.30;99.90
26081;DHT22;13991;51.174;4.438;2023-05-07T10:52:17;19.30;99.90
26081;DHT22;13991;51.174;4.438;2023-05-07T10:54:43;19.20;99.90
26081;DHT22;13991;51.174;4.438;2023-05-07T10:59:57;19.00;99.90
26081;DHT22;13991;51.174;4.438;2023-05-07T11:02:23;19.10;99.90
26081;DHT22;13991;51.174;4.438;2023-05-07T11:05:22;19.10;99.90
26081;DHT22;13991;51.174;4.438;2023-05-07T11:08:01;19.20;99.90
26081;DHT22;13991;51.174;4.438;2023-05-07T11:10:54;19.40;99.90
26081;DHT22;13991;51.174;4.438;2023-05-07T11:13:43;19.40;99.90
26081;DHT22;13991;51.174;4.438;2023-05-07T11:16:28;19.30;99.90
26081;DHT22;13991;51.174;4.438;2023-05-07T11:18:55;19.40;99.90
26081;DHT22;13991;51.174;4.438;2023-05-07T11:21:35;19.50;99.90
26081;DHT22;13991;51.174;4.438;2023-05-07T11:24:03;19.40;99.90
26081;DHT22;13991;51.174;4.438;2023-05-07T11:26:48;19.30;99.90
26081;DHT22;13991;51.174;4.438;2023-05-07T11:29:19;19.30;99.90
26081;DHT22;13991;51.174;4.438;2023-05-07T11:31:49;19.20;99.90
26081;DHT22;13991;51.174;4.438;2023-05-07T11:34:15;19.40;99.90
26081;DHT22;13991;51.174;4.438;2023-05-07T11:36:46;19.40;99.90
26081;DHT22;13991;51.174;4.438;2023-05-07T11:39:32;19.30;99.90
26081;DHT22;13991;51.174;4.438;2023-05-07T11:41:59;19.50;99.90
26081;DHT22;13991;51.174;4.438;2023-05-07T11:44:31;19.40;99.90
26081;DHT22;13991;51.174;4.438;2023-05-07T11:47:04;19.40;99.90
26081;DHT22;13991;51.174;4.438;2023-05-07T11:49:30;19.40;99.90
26081;DHT22;13991;51.174;4.438;2023-05-07T11:51:56;19.50;99.90
26081;DHT22;13991;51.174;4.438;2023-05-07T11:54:22;19.60;99.90
26081;DHT22;13991;51.174;4.438;2023-05-07T11:56:47;19.40;99.90
26081;DHT22;13991;51.174;4.438;2023-05-07T11:59:17;19.50;99.90
26081;DHT22;13991;51.174;4.438;2023-05-07T12:01:45;19.40;99.90
26081;DHT22;13991;51.174;4.438;2023-05-07T12:04:11;19.20;99.90
26081;DHT22;13991;51.174;4.438;2023-05-07T12:06:37;19.20;99.90
26081;DHT22;13991;51.174;4.438;2023-05-07T12:09:04;19.30;99.90
26081;DHT22;13991;51.174;4.438;2023-05-07T12:11:30;19.20;99.90
26081;DHT22;13991;51.174;4.438;2023-05-07T12:13:56;19.20;99.90
26081;DHT22;13991;51.174;4.438;2023-05-07T12:16:21;19.30;99.90
26081;DHT22;13991;51.174;4.438;2023-05-07T12:18:47;19.30;99.90
26081;DHT22;13991;51.174;4.438;2023-05-07T12:21:13;19.40;99.90
26081;DHT22;13991;51.174;4.438;2023-05-07T12:23:40;19.30;99.90
26081;DHT22;13991;51.174;4.438;2023-05-07T12:26:05;19.50;99.90
26081;DHT22;13991;51.174;4.438;2023-05-07T12:28:35;19.50;99.90
26081;DHT22;13991;51.174;4.438;2023-05-07T12:31:02;19.50;99.90
26081;DHT22;13991;51.174;4.438;2023-05-07T12:33:28;19.00;99.90
26081;DHT22;13991;51.174;4.438;2023-05-07T12:35:55;18.90;99.90
26081;DHT22;13991;51.174;4.438;2023-05-07T12:38:21;19.10;99.90
26081;DHT22;13991;51.174;4.438;2023-05-07T12:40:48;19.10;99.90
26081;DHT22;13991;51.174;4.438;2023-05-07T12:43:26;19.20;99.90
26081;DHT22;13991;51.174;4.438;2023-05-07T12:45:55;19.20;99.90
26081;DHT22;13991;51.174;4.438;2023-05-07T12:48:21;19.50;99.90
26081;DHT22;13991;51.174;4.438;2023-05-07T12:50:51;19.60;99.90
26081;DHT22;13991;51.174;4.438;2023-05-07T12:53:19;19.70;99.90
26081;DHT22;13991;51.174;4.438;2023-05-07T12:55:47;19.60;99.90
26081;DHT22;13991;51.174;4.438;2023-05-07T12:58:17;19.60;99.90
26081;DHT22;13991;51.174;4.438;2023-05-07T13:00:43;19.80;99.90
26081;DHT22;13991;51.174;4.438;2023-05-07T13:03:10;20.00;99.90
26081;DHT22;13991;51.174;4.438;2023-05-07T13:05:36;20.00;99.90
26081;DHT22;13991;51.174;4.438;2023-05-07T13:08:02;19.90;99.90
26081;DHT22;13991;51.174;4.438;2023-05-07T13:10:28;19.70;99.90
26081;DHT22;13991;51.174;4.438;2023-05-07T13:12:54;19.70;99.90
26081;DHT22;13991;51.174;4.438;2023-05-07T13:15:20;19.90;99.90
26081;DHT22;13991;51.174;4.438;2023-05-07T13:17:47;20.10;99.90
26081;DHT22;13991;51.174;4.438;2023-05-07T13:20:13;20.10;99.90
26081;DHT22;13991;51.174;4.438;2023-05-07T13:22:39;20.10;99.90
26081;DHT22;13991;51.174;4.438;2023-05-07T13:25:05;20.30;99.90
26081;DHT22;13991;51.174;4.438;2023-05-07T13:27:31;20.50;99.90
26081;DHT22;13991;51.174;4.438;2023-05-07T13:29:57;20.50;99.90
26081;DHT22;13991;51.174;4.438;2023-05-07T13:32:23;20.50;99.90
26081;DHT22;13991;51.174;4.438;2023-05-07T13:34:48;20.60;99.90
26081;DHT22;13991;51.174;4.438;2023-05-07T13:37:14;20.40;99.90
26081;DHT22;13991;51.174;4.438;2023-05-07T13:39:40;20.40;99.90
26081;DHT22;13991;51.174;4.438;2023-05-07T13:42:06;20.20;99.90
26081;DHT22;13991;51.174;4.438;2023-05-07T13:44:32;20.20;99.90
26081;DHT22;13991;51.174;4.438;2023-05-07T13:46:58;20.40;99.90
26081;DHT22;13991;51.174;4.438;2023-05-07T13:49:23;20.30;99.90
26081;DHT22;13991;51.174;4.438;2023-05-07T13:51:49;20.40;99.90
26081;DHT22;13991;51.174;4.438;2023-05-07T13:54:15;20.30;99.90
26081;DHT22;13991;51.174;4.438;2023-05-07T13:56:41;20.40;99.90
26081;DHT22;13991;51.174;4.438;2023-05-07T13:59:07;20.40;99.90
26081;DHT22;13991;51.174;4.438;2023-05-07T14:01:33;20.60;99.90
26081;DHT22;13991;51.174;4.438;2023-05-07T14:03:58;20.80;99.90
26081;DHT22;13991;51.174;4.438;2023-05-07T14:06:25;20.30;99.90
26081;DHT22;13991;51.174;4.438;2023-05-07T14:08:50;20.10;99.90
26081;DHT22;13991;51.174;4.438;2023-05-07T14:11:16;20.00;99.90
26081;DHT22;13991;51.174;4.438;2023-05-07T14:13:42;20.10;99.90
26081;DHT22;13991;51.174;4.438;2023-05-07T14:16:07;20.20;99.90
26081;DHT22;13991;51.174;4.438;2023-05-07T14:18:33;20.00;99.90
26081;DHT22;13991;51.174;4.438;2023-05-07T14:20:59;20.00;99.90
26081;DHT22;13991;51.174;4.438;2023-05-07T14:23:25;20.10;99.90
26081;DHT22;13991;51.174;4.438;2023-05-07T14:25:52;20.40;99.90
26081;DHT22;13991;51.174;4.438;2023-05-07T14:28:18;20.50;99.90
26081;DHT22;13991;51.174;4.438;2023-05-07T14:30:44;20.60;99.90
26081;DHT22;13991;51.174;4.438;2023-05-07T14:33:10;20.70;99.90
26081;DHT22;13991;51.174;4.438;2023-05-07T14:35:36;20.80;99.90
26081;DHT22;13991;51.174;4.438;2023-05-07T14:38:01;20.80;99.90
26081;DHT22;13991;51.174;4.438;2023-05-07T14:40:27;20.60;99.90
26081;DHT22;13991;51.174;4.438;2023-05-07T14:42:53;20.60;99.90
26081;DHT22;13991;51.174;4.438;2023-05-07T14:45:20;20.70;99.90
26081;DHT22;13991;51.174;4.438;2023-05-07T14:47:45;20.80;99.90
26081;DHT22;13991;51.174;4.438;2023-05-07T14:50:11;20.90;99.90
26081;DHT22;13991;51.174;4.438;2023-05-07T14:52:37;20.70;99.90
26081;DHT22;13991;51.174;4.438;2023-05-07T14:55:03;20.70;99.90
26081;DHT22;13991;51.174;4.438;2023-05-07T14:57:29;20.80;99.90
26081;DHT22;13991;51.174;4.438;2023-05-07T14:59:54;20.70;99.90
26081;DHT22;13991;51.174;4.438;2023-05-07T15:02:20;20.70;99.90
26081;DHT22;13991;51.174;4.438;2023-05-07T15:04:46;20.90;99.90
26081;DHT22;13991;51.174;4.438;2023-05-07T15:07:12;21.10;99.90
26081;DHT22;13991;51.174;4.438;2023-05-07T15:09:41;21.20;99.90
26081;DHT22;13991;51.174;4.438;2023-05-07T15:12:07;21.20;99.90
26081;DHT22;13991;51.174;4.438;2023-05-07T15:14:33;21.10;99.90
26081;DHT22;13991;51.174;4.438;2023-05-07T15:16:58;21.10;99.90
26081;DHT22;13991;51.174;4.438;2023-05-07T15:19:24;21.30;99.90
26081;DHT22;13991;51.174;4.438;2023-05-07T15:21:54;21.20;99.90
26081;DHT22;13991;51.174;4.438;2023-05-07T15:24:22;21.10;99.90
26081;DHT22;13991;51.174;4.438;2023-05-07T15:26:48;21.30;99.90
26081;DHT22;13991;51.174;4.438;2023-05-07T15:29:13;21.30;99.90
26081;DHT22;13991;51.174;4.438;2023-05-07T15:31:39;21.40;99.90
26081;DHT22;13991;51.174;4.438;2023-05-07T15:34:05;21.20;99.90
26081;DHT22;13991;51.174;4.438;2023-05-07T15:36:31;21.40;99.90